KBRL

Southeast Iowa Regional Airport

Burlington, Iowa, USA
METAR KBRL 151853Z AUTO 31007KT 10SM SCT120 M12/M17 A3007 RMK AO2 SLP197 T11171167
Observed Flight Rules
Feb-15 @ 18:53 UTC (17 minutes ago) Visual Flight Rules
Wind Visibility Clouds
310° at 7 knots 10 miles
  • Scattered at 12,000' AGL
Temperatures Readings
Current -12°C / 10°F
Dewpoint -17°C / 1°F
Humidity 67%
Altimeter 30.07" Hg
Pressure 1019.7 hPa
Elevation 211
METAR KBRL 151853Z AUTO 31007KT 10SM SCT120 M12/M17 A3007 RMK AO2 SLP197 T11171167
Observed Flight Rules
Feb-15 @ 18:53 UTC
(17 minutes ago)
VFR
Wind Visibility
310° at 7 knots 10 miles
Clouds
  • Scattered at 12,000' AGL
Temperature Dewpoint
-12°C / 10°F -17°C / 1°F
Humidity Altimeter Pressure
67% 30.07" Hg 1019.7 hPa